Kennedale's Hourly Summary for Monday, April 17, 2017
Hour Temp
(f)
RH
(%)
Solar Rad.
(MJ/m2)
Rainfall
(in)
Wind
(mph)
4/17/2017 12:00 AM 70 85 0 0 0
4/17/2017 1:00 AM 69 86 0 0 0
4/17/2017 2:00 AM 71 83 0 0 0
4/17/2017 3:00 AM 69 88 0 0 0
4/17/2017 4:00 AM 67 91 0 0 0
4/17/2017 5:00 AM 67 92 0 0 0
4/17/2017 6:00 AM 67 92 0 0 0
4/17/2017 7:00 AM 66 94 0.04 0 0
4/17/2017 8:00 AM 67 92 0.32 0 0
4/17/2017 9:00 AM 69 87 0.72 0 0
4/17/2017 10:00 AM 69 86 0.36 0 0
4/17/2017 11:00 AM 72 81 1.06 0 0
4/17/2017 12:00 PM 74 75 1.29 0 0
4/17/2017 1:00 PM 76 68 1.7 0 0
4/17/2017 2:00 PM 72 75 0.64 0 0
4/17/2017 3:00 PM 64 91 0.15 0.32 0
4/17/2017 4:00 PM 62 93 0.09 0.37 0
4/17/2017 5:00 PM 62 91 0.12 0.04 0
4/17/2017 6:00 PM 62 90 0.03 0.04 0
4/17/2017 7:00 PM 63 89 0.02 0 0
4/17/2017 8:00 PM 63 92 0.01 0 0
4/17/2017 9:00 PM 63 93 0 0 0
4/17/2017 10:00 PM 62 94 0 0 0
4/17/2017 11:00 PM 62 94 0 0 0
Data Summary 67 87 6.55 0.77 0.00